KOXV

Knoxville Municipal Airport

Knoxville, Iowa, USA
METAR KOXV 190255Z AUTO 04004KT 7SM OVC007 19/19 A2994 RMK AO2
Observed Flight Rules
Sep-19 @ 02:55 UTC (24 minutes ago) Instrument Flight Rules
Wind Visibility Clouds
40° at 4 knots 7 miles
  • Overcast at 700' AGL
Temperatures Readings
Current 19°C / 66°F
Dewpoint 19°C / 66°F
Humidity 100%
Altimeter 29.94" Hg
Pressure 1014 hPa
Elevation 283
METAR KOXV 190255Z AUTO 04004KT 7SM OVC007 19/19 A2994 RMK AO2
Observed Flight Rules
Sep-19 @ 02:55 UTC
(24 minutes ago)
IFR
Wind Visibility
40° at 4 knots 7 miles
Clouds
  • Overcast at 700' AGL
Temperature Dewpoint
19°C / 66°F 19°C / 66°F
Humidity Altimeter Pressure
100% 29.94" Hg 1014 hPa